Hanford Works, Washington
Current Conditions -  °F | °C
As of 9:53 AM on Friday 19 Dec 2014 (Local Time) from KPSC Reporting Station
Clear Clear  
Wind Chill: 37°   Ceiling: Unl
Heat Index: 43°   Visibility: 10mi
Dew Point: 40°   Wind: 10mph
Humidity: 89%   Direction: 200°SSW
Pressure: 29.96"   Gusts: NA
Location:  46.3844°N, 119.377°W
Report Text: KPSC 191753Z 20009KT 10SM CLR 06/04 A2996 RMK AO2 SLP148 60002 T00610044 10061 20033 53016
Loading
Personal Weather Stations






























Interactive Weather Map New forecast layout! Learn more

10-Day Weather Forecast

Advertisements
Track Severe Weather on mobile